createdAt,value
2024-01-27T00:00:47.182Z,5.30
2024-01-27T00:02:06.866Z,5.30
2024-01-27T00:03:15.730Z,5.20
2024-01-27T00:04:23.545Z,5.20
2024-01-27T00:05:31.407Z,5.30
2024-01-27T00:07:07.597Z,5.30
2024-01-27T00:08:15.280Z,5.40
2024-01-27T00:09:23.095Z,5.40
2024-01-27T00:10:29.284Z,5.50
2024-01-27T00:11:31.775Z,5.40
2024-01-27T00:12:37.826Z,5.50
2024-01-27T00:13:54.683Z,5.40
2024-01-27T00:14:58.587Z,5.40
2024-01-27T00:16:06.850Z,5.30
2024-01-27T00:17:14.638Z,5.30
2024-01-27T00:18:18.676Z,5.30
2024-01-27T00:19:27.810Z,5.20
2024-01-27T00:20:35.385Z,5.30
2024-01-27T00:21:42.726Z,5.30
2024-01-27T00:22:51.395Z,5.20
2024-01-27T00:23:59.449Z,5.30
2024-01-27T00:25:10.510Z,5.30
2024-01-27T00:26:17.280Z,5.40
2024-01-27T00:27:26.153Z,5.50
2024-01-27T00:28:29.288Z,5.50
2024-01-27T00:29:36.986Z,5.40
2024-01-27T00:30:40.709Z,5.50
2024-01-27T00:31:46.907Z,5.30
2024-01-27T00:32:54.350Z,5.20
2024-01-27T00:33:59.154Z,5.30
2024-01-27T00:35:06.660Z,5.30
2024-01-27T00:36:17.400Z,5.40
2024-01-27T00:37:22.375Z,4.90
2024-01-27T00:38:43.360Z,5.40
2024-01-27T00:39:51.073Z,5.40
2024-01-27T00:41:02.415Z,5.30
2024-01-27T00:42:07.149Z,5.30
2024-01-27T00:43:14.533Z,5.30
2024-01-27T00:44:22.123Z,5.30
2024-01-27T00:45:29.665Z,5.30
2024-01-27T00:46:34.966Z,5.40
2024-01-27T00:47:42.460Z,5.40
2024-01-27T00:48:51.255Z,5.40
2024-01-27T00:50:03.003Z,5.30
2024-01-27T00:51:08.957Z,5.30
2024-01-27T00:52:13.369Z,5.20
2024-01-27T00:53:18.543Z,5.20
2024-01-27T00:54:26.786Z,5.20
2024-01-27T00:55:34.756Z,5.30
2024-01-27T00:56:46.928Z,5.30
2024-01-27T00:57:55.463Z,5.30
2024-01-27T00:59:02.852Z,5.30
2024-01-27T01:00:19.313Z,5.30
2024-01-27T01:01:26.663Z,5.20
2024-01-27T01:02:34.059Z,5.30
2024-01-27T01:03:42.848Z,5.30
2024-01-27T01:04:54.444Z,5.30
2024-01-27T01:06:01.847Z,5.30
2024-01-27T01:07:04.871Z,5.30
2024-01-27T01:08:07.689Z,5.40
2024-01-27T01:09:15.074Z,5.30
2024-01-27T01:10:23.226Z,5.20
2024-01-27T01:11:31.591Z,5.00
2024-01-27T01:12:35.120Z,5.10
2024-01-27T01:13:42.375Z,5.10
2024-01-27T01:14:50.672Z,5.20
2024-01-27T01:15:59.832Z,5.20
2024-01-27T01:17:02.934Z,5.10
2024-01-27T01:18:12.988Z,5.00
2024-01-27T01:19:22.589Z,5.00
2024-01-27T01:20:31.085Z,5.00
2024-01-27T01:21:35.242Z,4.90
2024-01-27T01:22:42.921Z,4.90
2024-01-27T01:23:47.440Z,4.90
2024-01-27T01:24:58.343Z,5.00
2024-01-27T01:26:01.081Z,5.10
2024-01-27T01:27:07.850Z,5.10
2024-01-27T01:28:11.713Z,5.00
2024-01-27T01:29:26.298Z,5.00
2024-01-27T01:30:31.320Z,5.00
2024-01-27T01:31:41.897Z,5.00
2024-01-27T01:32:44.383Z,5.10
2024-01-27T01:33:50.544Z,5.10
2024-01-27T01:34:58.894Z,5.20
2024-01-27T01:36:07.214Z,5.20
2024-01-27T01:37:22.356Z,5.20
2024-01-27T01:38:25.781Z,5.10
2024-01-27T01:39:30.688Z,5.20
2024-01-27T01:40:42.238Z,5.20
2024-01-27T01:41:50.172Z,5.20
2024-01-27T01:42:58.031Z,5.10
2024-01-27T01:44:06.195Z,5.10
2024-01-27T01:45:18.527Z,5.20
2024-01-27T01:46:27.407Z,5.20
2024-01-27T01:47:33.251Z,5.20
2024-01-27T01:48:38.916Z,5.20
2024-01-27T01:49:43.503Z,5.10
2024-01-27T01:50:50.742Z,5.00
2024-01-27T01:52:02.603Z,5.00
2024-01-27T01:53:10.170Z,4.80
2024-01-27T01:54:17.880Z,4.80
2024-01-27T01:55:23.379Z,4.80
2024-01-27T01:56:29.110Z,4.90
2024-01-27T01:57:40.900Z,5.00
2024-01-27T01:58:46.797Z,5.10
2024-01-27T01:59:54.935Z,5.10
2024-01-27T02:01:03.400Z,5.10
2024-01-27T02:02:10.702Z,5.10
2024-01-27T02:03:19.092Z,5.10
2024-01-27T02:04:25.727Z,5.10
2024-01-27T02:05:30.231Z,5.40
2024-01-27T02:06:37.171Z,5.20
2024-01-27T02:07:43.114Z,5.10
2024-01-27T02:08:47.315Z,5.10
2024-01-27T02:09:55.449Z,5.20
2024-01-27T02:11:05.236Z,5.20
2024-01-27T02:12:10.392Z,5.20
2024-01-27T02:13:23.797Z,5.20
2024-01-27T02:14:35.218Z,5.20
2024-01-27T02:15:42.822Z,5.30
2024-01-27T02:16:46.350Z,5.20
2024-01-27T02:17:50.948Z,5.20
2024-01-27T02:18:59.497Z,5.20
2024-01-27T02:20:11.245Z,5.10
2024-01-27T02:21:19.856Z,5.00
2024-01-27T02:22:29.957Z,5.10
2024-01-27T02:23:42.180Z,5.10
2024-01-27T02:24:51.166Z,5.10
2024-01-27T02:26:02.649Z,5.10
2024-01-27T02:27:10.671Z,5.10
2024-01-27T02:28:14.943Z,5.30
2024-01-27T02:29:23.042Z,5.30
2024-01-27T02:30:33.269Z,5.20
2024-01-27T02:31:36.041Z,5.30
2024-01-27T02:32:50.735Z,5.20
2024-01-27T02:33:57.395Z,5.10
2024-01-27T02:35:06.461Z,5.10
2024-01-27T02:36:15.329Z,5.10
2024-01-27T02:37:20.543Z,5.20
2024-01-27T02:38:31.075Z,5.30
2024-01-27T02:39:36.619Z,5.20
2024-01-27T02:40:42.596Z,5.20
2024-01-27T02:41:53.262Z,5.30
2024-01-27T02:42:58.445Z,5.20
2024-01-27T02:44:05.481Z,5.30
2024-01-27T02:45:14.508Z,5.30
2024-01-27T02:46:22.689Z,5.30
2024-01-27T02:47:33.924Z,5.30
2024-01-27T02:48:41.862Z,5.30
2024-01-27T02:49:49.530Z,5.30
2024-01-27T02:50:54.422Z,5.30
2024-01-27T02:52:00.707Z,5.30
2024-01-27T02:53:03.440Z,5.30
2024-01-27T02:54:14.157Z,5.40
2024-01-27T02:55:22.125Z,5.30
2024-01-27T02:56:33.924Z,5.30
2024-01-27T02:57:40.823Z,5.10
2024-01-27T02:58:49.295Z,5.10
2024-01-27T02:59:54.629Z,5.00
2024-01-27T03:01:02.513Z,5.10
2024-01-27T03:02:06.984Z,5.10
2024-01-27T03:03:14.872Z,5.10
2024-01-27T03:04:22.178Z,5.00
2024-01-27T03:05:34.100Z,5.10
2024-01-27T03:06:38.907Z,5.10
2024-01-27T03:07:50.052Z,5.20
2024-01-27T03:08:54.818Z,5.20
2024-01-27T03:10:03.042Z,5.20
2024-01-27T03:11:18.138Z,5.40
2024-01-27T03:12:26.958Z,5.40
2024-01-27T03:13:34.485Z,5.30
2024-01-27T03:14:39.738Z,5.30
2024-01-27T03:15:47.144Z,5.30
2024-01-27T03:16:52.929Z,5.30
2024-01-27T03:17:58.984Z,5.10
2024-01-27T03:19:07.120Z,5.10
2024-01-27T03:20:12.249Z,5.00
2024-01-27T03:21:17.634Z,5.10
2024-01-27T03:22:26.229Z,5.10
2024-01-27T03:23:30.982Z,5.10
2024-01-27T03:24:39.405Z,5.20
2024-01-27T03:25:47.026Z,5.10
2024-01-27T03:26:57.628Z,5.00
2024-01-27T03:28:04.873Z,5.10
2024-01-27T03:29:11.179Z,5.10
2024-01-27T03:30:15.890Z,5.10
2024-01-27T03:31:40.062Z,5.10
2024-01-27T03:32:43.248Z,5.10
2024-01-27T03:33:47.442Z,5.10
2024-01-27T03:34:50.775Z,5.10
2024-01-27T03:36:02.865Z,5.10
2024-01-27T03:37:14.178Z,5.10
2024-01-27T03:38:22.469Z,5.10
2024-01-27T03:39:30.874Z,5.10
2024-01-27T03:40:36.497Z,5.00
2024-01-27T03:41:39.245Z,5.00
2024-01-27T03:42:49.921Z,5.00
2024-01-27T03:43:58.663Z,5.00
2024-01-27T03:45:05.168Z,5.10
2024-01-27T03:46:16.429Z,5.00
2024-01-27T03:47:22.408Z,5.00
2024-01-27T03:48:30.440Z,5.10
2024-01-27T03:49:38.677Z,5.10
2024-01-27T03:50:45.182Z,5.10
2024-01-27T03:51:49.150Z,5.00
2024-01-27T03:52:58.883Z,5.00
2024-01-27T03:54:10.183Z,5.00
2024-01-27T03:55:18.417Z,5.00
2024-01-27T03:56:25.785Z,4.80
2024-01-27T03:57:30.533Z,4.90
2024-01-27T03:58:37.451Z,5.00
2024-01-27T03:59:46.077Z,5.00
2024-01-27T04:00:53.432Z,5.00
2024-01-27T04:01:58.995Z,5.00
2024-01-27T04:03:10.821Z,5.00
2024-01-27T04:04:18.250Z,5.00
2024-01-27T04:05:26.947Z,5.00
2024-01-27T04:06:38.945Z,5.00
2024-01-27T04:07:45.504Z,5.00
2024-01-27T04:08:50.665Z,4.80
2024-01-27T04:10:01.731Z,4.70
2024-01-27T04:11:10.814Z,4.80
2024-01-27T04:12:22.567Z,4.70
2024-01-27T04:13:30.542Z,4.70
2024-01-27T04:14:38.857Z,4.80
2024-01-27T04:15:50.786Z,4.80
2024-01-27T04:17:01.136Z,4.90
2024-01-27T04:18:07.931Z,4.90
2024-01-27T04:19:14.814Z,4.90
2024-01-27T04:20:22.761Z,4.90
2024-01-27T04:21:37.381Z,5.00
2024-01-27T04:22:40.962Z,4.90
2024-01-27T04:23:46.866Z,4.90
2024-01-27T04:24:50.518Z,4.90
2024-01-27T04:25:57.541Z,4.80
2024-01-27T04:27:06.971Z,4.90
2024-01-27T04:28:15.800Z,4.90
2024-01-27T04:29:23.257Z,4.90
2024-01-27T04:30:30.875Z,4.90
2024-01-27T04:31:45.630Z,5.00
2024-01-27T04:32:55.575Z,5.00
2024-01-27T04:34:07.119Z,5.10
2024-01-27T04:35:17.920Z,5.10
2024-01-27T04:36:32.080Z,5.00
2024-01-27T04:37:43.019Z,5.00
2024-01-27T04:38:51.287Z,4.90
2024-01-27T04:39:59.216Z,5.00
2024-01-27T04:41:07.845Z,5.00
2024-01-27T04:42:20.169Z,4.90
2024-01-27T04:43:30.931Z,5.10
2024-01-27T04:44:35.922Z,4.80
2024-01-27T04:45:47.332Z,5.00
2024-01-27T04:47:04.389Z,5.00
2024-01-27T04:48:11.796Z,5.00
2024-01-27T04:49:19.825Z,5.00
2024-01-27T04:50:30.617Z,5.00
2024-01-27T04:51:43.568Z,5.00
2024-01-27T04:52:51.846Z,4.90
2024-01-27T04:54:00.420Z,4.90
2024-01-27T04:55:08.855Z,5.00
2024-01-27T04:56:15.503Z,5.00
2024-01-27T04:57:23.859Z,4.90
2024-01-27T04:58:26.270Z,4.90
2024-01-27T04:59:32.651Z,4.80
2024-01-27T05:00:40.207Z,4.90
2024-01-27T05:01:52.053Z,4.90
2024-01-27T05:03:08.691Z,4.80
2024-01-27T05:04:19.970Z,4.90
2024-01-27T05:05:26.593Z,4.80
2024-01-27T05:06:32.282Z,4.80
2024-01-27T05:07:39.374Z,4.80
2024-01-27T05:08:55.803Z,4.80
2024-01-27T05:10:00.478Z,4.90
2024-01-27T05:11:16.229Z,4.80
2024-01-27T05:12:21.091Z,4.80
2024-01-27T05:13:35.953Z,4.80
2024-01-27T05:14:38.910Z,4.80
2024-01-27T05:15:44.773Z,4.70
2024-01-27T05:17:03.836Z,4.80
2024-01-27T05:18:11.861Z,4.60
2024-01-27T05:19:16.819Z,4.90
2024-01-27T05:20:25.063Z,4.80
2024-01-27T05:21:32.453Z,4.90
2024-01-27T05:24:00.655Z,4.90
2024-01-27T05:25:16.566Z,4.90
2024-01-27T05:26:21.126Z,4.90
2024-01-27T05:27:32.330Z,4.80
2024-01-27T05:28:39.704Z,4.80
2024-01-27T05:29:49.671Z,4.80
2024-01-27T05:31:00.801Z,4.80
2024-01-27T05:32:09.034Z,4.80
2024-01-27T05:33:20.000Z,4.60
2024-01-27T05:34:29.185Z,4.70
2024-01-27T05:35:36.860Z,4.60
2024-01-27T05:36:56.350Z,4.60
2024-01-27T05:37:59.665Z,4.70
2024-01-27T05:39:05.676Z,4.70
2024-01-27T05:40:12.862Z,4.70
2024-01-27T05:41:19.250Z,4.60
2024-01-27T05:42:21.724Z,4.60
2024-01-27T05:43:32.765Z,4.60
2024-01-27T05:44:41.740Z,4.70
2024-01-27T05:45:56.028Z,4.60
2024-01-27T05:47:04.408Z,4.60
2024-01-27T05:48:12.256Z,4.90
2024-01-27T05:49:20.352Z,4.50
2024-01-27T05:50:27.642Z,4.40
2024-01-27T05:51:31.965Z,4.50
2024-01-27T05:52:40.731Z,4.60
2024-01-27T05:53:50.766Z,4.40
2024-01-27T05:55:02.641Z,4.40
2024-01-27T05:56:07.725Z,4.40
2024-01-27T05:57:12.403Z,4.40
2024-01-27T05:58:26.680Z,4.30
2024-01-27T05:59:32.606Z,4.30
2024-01-27T06:00:43.585Z,4.40
2024-01-27T06:01:48.639Z,4.50
2024-01-27T06:02:56.709Z,4.40
2024-01-27T06:04:04.619Z,4.40
2024-01-27T06:05:12.535Z,4.40
2024-01-27T06:06:20.913Z,4.30
2024-01-27T06:07:30.592Z,4.30
2024-01-27T06:08:35.131Z,4.30
2024-01-27T06:09:43.685Z,4.30
2024-01-27T06:10:48.287Z,4.20
2024-01-27T06:12:00.221Z,4.40
2024-01-27T06:13:11.650Z,4.50
2024-01-27T06:14:19.961Z,4.50
2024-01-27T06:15:27.400Z,4.40
2024-01-27T06:16:32.744Z,4.50
2024-01-27T06:17:40.896Z,4.50
2024-01-27T06:18:49.534Z,4.40
2024-01-27T06:19:55.570Z,4.50
2024-01-27T06:21:08.285Z,4.50
2024-01-27T06:22:17.076Z,4.50
2024-01-27T06:23:25.336Z,4.40
2024-01-27T06:24:29.737Z,4.60
2024-01-27T06:25:37.266Z,4.50
2024-01-27T06:26:44.726Z,4.60
2024-01-27T06:27:53.437Z,4.50
2024-01-27T06:29:04.273Z,4.60
2024-01-27T06:30:12.927Z,4.60
2024-01-27T06:31:18.851Z,4.70
2024-01-27T06:32:29.139Z,4.70
2024-01-27T06:33:36.551Z,4.50
2024-01-27T06:34:41.047Z,4.40
2024-01-27T06:35:49.324Z,4.50
2024-01-27T06:36:56.898Z,4.40
2024-01-27T06:38:04.829Z,4.40
2024-01-27T06:39:16.448Z,4.30
2024-01-27T06:40:20.384Z,4.40
2024-01-27T06:41:25.244Z,4.40
2024-01-27T06:42:45.667Z,4.30
2024-01-27T06:43:49.788Z,4.40
2024-01-27T06:45:04.616Z,4.40
2024-01-27T06:46:09.607Z,4.40
2024-01-27T06:47:16.888Z,4.30
2024-01-27T06:48:24.382Z,4.20
2024-01-27T06:49:28.862Z,4.20
2024-01-27T06:50:36.776Z,4.10
2024-01-27T06:51:43.893Z,4.20
2024-01-27T06:52:51.855Z,4.10
2024-01-27T06:53:59.956Z,3.90
2024-01-27T06:55:08.466Z,3.90
2024-01-27T06:56:18.947Z,4.00
2024-01-27T06:57:24.768Z,4.00
2024-01-27T06:58:35.842Z,4.00
2024-01-27T06:59:40.987Z,4.10
2024-01-27T07:00:52.641Z,4.00
2024-01-27T07:01:59.893Z,4.00
2024-01-27T07:03:09.755Z,3.90
2024-01-27T07:04:16.490Z,4.00
2024-01-27T07:05:25.143Z,4.10
2024-01-27T07:06:34.574Z,4.10
2024-01-27T07:07:40.175Z,4.20
2024-01-27T07:08:48.293Z,4.10
2024-01-27T07:09:56.050Z,4.20
2024-01-27T07:10:59.529Z,4.10
2024-01-27T07:12:02.178Z,4.20
2024-01-27T07:13:15.023Z,4.10
2024-01-27T07:14:19.791Z,4.00
2024-01-27T07:15:28.165Z,3.90
2024-01-27T07:16:37.230Z,4.00
2024-01-27T07:17:52.384Z,4.00
2024-01-27T07:19:00.343Z,4.10
2024-01-27T07:20:10.521Z,4.20
2024-01-27T07:21:16.924Z,4.10
2024-01-27T07:22:26.424Z,4.10
2024-01-27T07:23:29.040Z,4.20
2024-01-27T07:24:43.767Z,4.10
2024-01-27T07:25:48.381Z,3.70
2024-01-27T07:26:56.526Z,4.00
2024-01-27T07:28:04.745Z,3.90
2024-01-27T07:29:12.313Z,4.00
2024-01-27T07:30:22.575Z,4.00
2024-01-27T07:31:36.249Z,4.10
2024-01-27T07:32:43.769Z,4.20
2024-01-27T07:33:53.479Z,4.00
2024-01-27T07:34:59.174Z,4.10
2024-01-27T07:36:05.257Z,4.10
2024-01-27T07:37:13.071Z,4.20
2024-01-27T07:38:21.654Z,4.20
2024-01-27T07:39:29.174Z,4.00
2024-01-27T07:40:39.193Z,4.10
2024-01-27T07:41:41.744Z,4.10
2024-01-27T07:44:12.948Z,4.10
2024-01-27T07:45:20.441Z,4.10
2024-01-27T07:46:25.982Z,4.00
2024-01-27T07:47:34.232Z,4.00
2024-01-27T07:48:37.745Z,4.00
2024-01-27T07:49:53.883Z,3.90
2024-01-27T07:51:08.271Z,3.80
2024-01-27T07:52:12.384Z,3.90
2024-01-27T07:53:17.217Z,3.80
2024-01-27T07:54:24.982Z,3.80
2024-01-27T07:55:30.206Z,3.90
2024-01-27T07:56:53.280Z,4.00
2024-01-27T07:58:04.175Z,4.00
2024-01-27T07:59:17.647Z,4.10
2024-01-27T08:00:29.649Z,4.20
2024-01-27T08:01:40.444Z,4.40
2024-01-27T08:02:45.848Z,4.20
2024-01-27T08:03:53.245Z,4.10
2024-01-27T08:04:59.143Z,4.20
2024-01-27T08:06:08.711Z,4.20
2024-01-27T08:07:16.331Z,4.20
2024-01-27T08:08:21.988Z,4.20
2024-01-27T08:09:26.281Z,4.10
2024-01-27T08:10:37.252Z,4.20
2024-01-27T08:11:49.472Z,4.20
2024-01-27T08:12:59.227Z,4.10
2024-01-27T08:14:02.001Z,4.00
2024-01-27T08:15:14.066Z,4.10
2024-01-27T08:16:21.416Z,4.10
2024-01-27T08:17:32.127Z,3.90
2024-01-27T08:18:38.270Z,4.10
2024-01-27T08:19:51.968Z,4.00
2024-01-27T08:20:57.276Z,4.00
2024-01-27T08:22:05.561Z,3.90
2024-01-27T08:23:09.446Z,4.00
2024-01-27T08:24:18.051Z,3.90
2024-01-27T08:25:29.474Z,3.90
2024-01-27T08:26:39.326Z,4.00
2024-01-27T08:27:45.877Z,4.00
2024-01-27T08:29:00.621Z,3.90
2024-01-27T08:30:06.148Z,3.90
2024-01-27T08:31:15.333Z,3.90
2024-01-27T08:32:18.097Z,4.00
2024-01-27T08:33:26.029Z,4.10
2024-01-27T08:38:50.175Z,4.10
2024-01-27T08:40:00.863Z,3.70
2024-01-27T08:41:08.845Z,3.60
2024-01-27T08:42:17.243Z,3.70
2024-01-27T08:43:22.052Z,3.80
2024-01-27T08:44:28.887Z,3.90
2024-01-27T08:45:32.455Z,4.00
2024-01-27T08:46:37.709Z,3.90
2024-01-27T08:47:58.044Z,3.90
2024-01-27T08:49:08.861Z,4.00
2024-01-27T08:50:14.715Z,4.00
2024-01-27T08:51:19.358Z,4.30
2024-01-27T08:52:21.778Z,4.10
2024-01-27T08:53:33.733Z,4.30
2024-01-27T08:54:41.288Z,4.20
2024-01-27T08:55:52.209Z,4.00
2024-01-27T08:56:56.802Z,4.10
2024-01-27T08:58:04.640Z,4.20
2024-01-27T08:59:11.062Z,4.30
2024-01-27T09:00:17.750Z,4.10
2024-01-27T09:01:32.581Z,4.20
2024-01-27T09:02:40.973Z,4.10
2024-01-27T09:03:44.702Z,4.10
2024-01-27T09:04:53.130Z,4.20
2024-01-27T09:06:00.768Z,4.20
2024-01-27T09:07:13.144Z,4.30
2024-01-27T09:08:17.146Z,4.10
2024-01-27T09:09:24.771Z,4.20
2024-01-27T09:10:32.215Z,4.10
2024-01-27T09:11:39.539Z,4.10
2024-01-27T09:12:42.193Z,4.30
2024-01-27T09:13:49.334Z,4.20
2024-01-27T09:15:04.256Z,4.20
2024-01-27T09:16:13.874Z,4.20
2024-01-27T09:17:21.491Z,4.40
2024-01-27T09:18:28.855Z,4.50
2024-01-27T09:19:33.120Z,4.60
2024-01-27T09:20:36.947Z,4.60
2024-01-27T09:21:40.682Z,4.70
2024-01-27T09:22:48.510Z,4.70
2024-01-27T09:23:59.579Z,4.70
2024-01-27T09:25:05.303Z,4.80
2024-01-27T09:26:13.283Z,4.90
2024-01-27T09:27:21.408Z,4.90
2024-01-27T09:28:29.342Z,4.90
2024-01-27T09:29:38.026Z,5.00
2024-01-27T09:30:49.193Z,5.10
2024-01-27T09:31:57.463Z,5.10
2024-01-27T09:33:05.763Z,5.10
2024-01-27T09:34:17.607Z,5.10
2024-01-27T09:35:25.699Z,5.10
2024-01-27T09:36:37.174Z,5.30
2024-01-27T09:37:49.631Z,5.20
2024-01-27T09:39:00.261Z,5.20
2024-01-27T09:40:05.847Z,5.10
2024-01-27T09:41:14.066Z,5.10
2024-01-27T09:42:25.628Z,5.20
2024-01-27T09:43:36.198Z,5.10
2024-01-27T09:44:49.469Z,5.10
2024-01-27T09:46:09.592Z,5.10
2024-01-27T09:47:21.093Z,5.10
2024-01-27T09:48:30.023Z,5.20
2024-01-27T09:49:41.074Z,5.10
2024-01-27T09:50:49.977Z,4.80
2024-01-27T09:52:01.569Z,5.00
2024-01-27T09:53:13.254Z,5.00
2024-01-27T09:54:21.608Z,5.30
2024-01-27T09:55:28.783Z,5.10
2024-01-27T09:56:41.406Z,4.90
2024-01-27T09:57:49.220Z,5.00
2024-01-27T09:58:56.545Z,4.90
2024-01-27T10:00:00.683Z,5.00
2024-01-27T10:01:11.670Z,5.00
2024-01-27T10:02:21.183Z,5.00
2024-01-27T10:03:31.913Z,5.00
2024-01-27T10:04:37.577Z,5.00
2024-01-27T10:05:48.981Z,5.00
2024-01-27T10:07:00.886Z,5.00
2024-01-27T10:08:13.702Z,5.00
2024-01-27T10:09:20.419Z,5.00
2024-01-27T10:10:28.040Z,5.00
2024-01-27T10:11:36.872Z,5.10
2024-01-27T10:12:48.938Z,5.00
2024-01-27T10:14:01.344Z,5.10
2024-01-27T10:15:11.746Z,5.00
2024-01-27T10:16:21.246Z,5.00
2024-01-27T10:17:41.504Z,5.10
2024-01-27T10:18:49.048Z,5.00
2024-01-27T10:20:12.849Z,5.10
2024-01-27T10:21:25.051Z,5.10
2024-01-27T10:22:35.217Z,5.30
2024-01-27T10:23:45.383Z,5.00
2024-01-27T10:25:05.815Z,5.10
2024-01-27T10:26:20.031Z,5.00
2024-01-27T10:27:24.772Z,5.00
2024-01-27T10:28:33.590Z,5.10
2024-01-27T10:29:41.000Z,5.10
2024-01-27T10:30:44.910Z,5.00
2024-01-27T10:32:13.004Z,5.20
2024-01-27T10:33:20.663Z,5.00
2024-01-27T10:34:23.730Z,5.30
2024-01-27T10:35:37.993Z,5.20
2024-01-27T10:36:44.721Z,5.20
2024-01-27T10:37:50.029Z,5.10
2024-01-27T10:39:00.681Z,5.20
2024-01-27T10:40:07.935Z,5.20
2024-01-27T10:41:13.079Z,5.20
2024-01-27T10:42:21.368Z,5.20
2024-01-27T10:43:29.690Z,5.20
2024-01-27T10:44:37.366Z,5.00
2024-01-27T10:45:41.538Z,5.20
2024-01-27T10:47:01.049Z,5.20
2024-01-27T10:48:12.938Z,5.20
2024-01-27T10:49:21.236Z,5.10
2024-01-27T10:50:25.574Z,5.10
2024-01-27T10:51:36.697Z,5.10
2024-01-27T10:52:44.677Z,5.10
2024-01-27T10:54:01.407Z,5.10
2024-01-27T10:55:15.869Z,5.10
2024-01-27T10:56:25.352Z,5.20
2024-01-27T10:57:36.726Z,5.10
2024-01-27T10:58:51.454Z,5.10
2024-01-27T11:00:00.833Z,5.20
2024-01-27T11:01:12.807Z,5.20
2024-01-27T11:02:19.387Z,5.20
2024-01-27T11:03:45.882Z,5.20
2024-01-27T11:04:56.654Z,5.10
2024-01-27T11:06:08.031Z,5.10
2024-01-27T11:07:12.640Z,5.10
2024-01-27T11:08:28.912Z,5.10
2024-01-27T11:09:40.939Z,5.00
2024-01-27T11:10:51.958Z,5.20
2024-01-27T11:12:08.981Z,4.90
2024-01-27T11:13:13.974Z,4.90
2024-01-27T11:14:21.957Z,4.90
2024-01-27T11:15:32.814Z,4.80
2024-01-27T11:16:45.796Z,4.90
2024-01-27T11:17:57.201Z,4.90
2024-01-27T11:19:01.403Z,5.00
2024-01-27T11:20:17.856Z,4.70
2024-01-27T11:21:23.992Z,4.70
2024-01-27T11:22:29.347Z,4.80
2024-01-27T11:23:41.018Z,4.80
2024-01-27T11:24:48.770Z,4.80
2024-01-27T11:26:09.155Z,4.90
2024-01-27T11:27:25.047Z,4.90
2024-01-27T11:28:32.851Z,4.90
2024-01-27T11:29:37.517Z,4.90
2024-01-27T11:30:59.096Z,4.90
2024-01-27T11:32:04.342Z,4.80
2024-01-27T11:33:11.369Z,4.80
2024-01-27T11:34:17.928Z,4.70
2024-01-27T11:35:21.849Z,4.70
2024-01-27T11:36:37.914Z,4.80
2024-01-27T11:37:45.844Z,4.80
2024-01-27T11:39:01.815Z,4.80
2024-01-27T11:40:12.027Z,4.80
2024-01-27T11:41:19.959Z,4.70
2024-01-27T11:42:25.020Z,4.70
2024-01-27T11:43:29.074Z,4.80
2024-01-27T11:44:37.388Z,4.80
2024-01-27T11:45:47.547Z,4.80
2024-01-27T11:46:57.610Z,4.80
2024-01-27T11:48:09.644Z,4.90
2024-01-27T11:49:20.684Z,4.90
2024-01-27T11:50:29.083Z,4.80
2024-01-27T11:51:39.261Z,4.90
2024-01-27T11:52:57.646Z,5.00
2024-01-27T11:54:05.840Z,4.90
2024-01-27T11:55:12.049Z,4.90
2024-01-27T11:56:17.812Z,4.90
2024-01-27T11:57:33.001Z,4.90
2024-01-27T11:58:40.950Z,4.90
2024-01-27T11:59:51.858Z,5.00
2024-01-27T12:00:57.946Z,4.80
2024-01-27T12:02:08.734Z,4.90
2024-01-27T12:03:12.881Z,4.80
2024-01-27T12:04:28.474Z,4.90
2024-01-27T12:05:33.015Z,4.80
2024-01-27T12:06:41.985Z,4.90
2024-01-27T12:07:47.105Z,4.80
2024-01-27T12:09:05.850Z,4.80
2024-01-27T12:10:16.768Z,4.90
2024-01-27T12:11:25.441Z,4.90
2024-01-27T12:12:33.772Z,4.90
2024-01-27T12:13:45.133Z,4.90
2024-01-27T12:14:49.591Z,4.70
2024-01-27T12:16:00.306Z,4.70
2024-01-27T12:17:05.843Z,4.70
2024-01-27T12:18:24.467Z,4.80
2024-01-27T12:19:33.792Z,4.80
2024-01-27T12:20:45.971Z,4.70
2024-01-27T12:22:00.148Z,4.90
2024-01-27T12:23:08.206Z,4.70
2024-01-27T12:24:22.462Z,4.70
2024-01-27T12:25:29.148Z,4.70
2024-01-27T12:26:32.713Z,4.70
2024-01-27T12:27:37.956Z,4.80
2024-01-27T12:28:53.980Z,4.80
2024-01-27T12:30:04.215Z,4.60
2024-01-27T12:31:08.857Z,4.70
2024-01-27T12:32:16.722Z,4.70
2024-01-27T12:33:25.813Z,4.60
2024-01-27T12:34:37.064Z,4.70
2024-01-27T12:35:43.558Z,4.70
2024-01-27T12:36:47.967Z,4.80
2024-01-27T12:37:55.395Z,4.90
2024-01-27T12:39:08.427Z,4.80
2024-01-27T12:40:23.515Z,4.60
2024-01-27T12:41:31.321Z,4.60
2024-01-27T12:42:37.503Z,4.70
2024-01-27T12:43:48.029Z,4.80
2024-01-27T12:44:57.756Z,4.80
2024-01-27T12:46:07.844Z,4.90
2024-01-27T12:47:12.974Z,4.80
2024-01-27T12:48:29.245Z,4.80
2024-01-27T12:49:33.414Z,4.90
2024-01-27T12:50:38.075Z,4.90
2024-01-27T12:51:43.848Z,5.30
2024-01-27T12:53:01.321Z,7.00
2024-01-27T12:54:07.973Z,7.90
2024-01-27T12:55:16.974Z,8.00
2024-01-27T12:56:24.903Z,8.60
2024-01-27T12:57:28.786Z,9.20
2024-01-27T12:58:37.017Z,9.60
2024-01-27T12:59:48.252Z,9.70
2024-01-27T13:00:51.016Z,9.80
2024-01-27T13:02:16.564Z,9.40
2024-01-27T13:03:20.309Z,9.00
2024-01-27T13:04:25.984Z,8.60
2024-01-27T13:05:33.549Z,8.00
2024-01-27T13:06:50.031Z,7.70
2024-01-27T13:08:08.517Z,7.40
2024-01-27T13:09:15.818Z,7.00
2024-01-27T13:10:21.268Z,7.30
2024-01-27T13:11:29.845Z,6.70
2024-01-27T13:12:33.336Z,6.50
2024-01-27T13:13:41.850Z,6.40
2024-01-27T13:14:51.374Z,6.20
2024-01-27T13:15:57.837Z,6.10
2024-01-27T13:17:09.432Z,6.10
2024-01-27T13:18:20.640Z,5.90
2024-01-27T13:19:36.493Z,5.80
2024-01-27T13:20:48.952Z,5.90
2024-01-27T13:21:55.825Z,5.80
2024-01-27T13:23:05.509Z,5.70
2024-01-27T13:24:12.961Z,5.70
2024-01-27T13:25:17.032Z,5.70
2024-01-27T13:26:28.337Z,5.70
2024-01-27T13:27:33.354Z,5.80
2024-01-27T13:28:37.680Z,5.70
2024-01-27T13:29:45.111Z,5.80
2024-01-27T13:30:56.917Z,6.00
2024-01-27T13:32:03.094Z,5.90
2024-01-27T13:33:09.344Z,5.90
2024-01-27T13:34:21.267Z,5.80
2024-01-27T13:35:29.868Z,5.80
2024-01-27T13:36:39.740Z,5.60
2024-01-27T13:37:45.210Z,5.60
2024-01-27T13:39:09.764Z,5.60
2024-01-27T13:40:16.484Z,5.60
2024-01-27T13:41:25.394Z,5.50
2024-01-27T13:42:41.874Z,5.50
2024-01-27T13:43:57.690Z,5.50
2024-01-27T13:45:04.345Z,5.50
2024-01-27T13:46:09.236Z,5.50
2024-01-27T13:47:19.891Z,5.50
2024-01-27T13:48:25.441Z,5.40
2024-01-27T13:49:36.646Z,5.40
2024-01-27T13:50:49.349Z,5.20
2024-01-27T13:52:06.442Z,5.20
2024-01-27T13:53:09.250Z,5.20
2024-01-27T13:54:16.657Z,5.50
2024-01-27T13:55:21.721Z,5.80
2024-01-27T13:56:29.423Z,6.00
2024-01-27T13:57:37.310Z,6.00
2024-01-27T13:58:45.962Z,6.20
2024-01-27T13:59:53.458Z,6.50
2024-01-27T14:01:00.958Z,6.60
2024-01-27T14:02:05.431Z,6.70
2024-01-27T14:03:15.301Z,6.60
2024-01-27T14:04:17.696Z,6.60
2024-01-27T14:05:26.172Z,6.70
2024-01-27T14:06:30.313Z,6.90
2024-01-27T14:07:41.095Z,6.90
2024-01-27T14:08:46.118Z,7.10
2024-01-27T14:10:00.200Z,7.10
2024-01-27T14:11:03.093Z,7.00
2024-01-27T14:12:16.535Z,7.00
2024-01-27T14:13:21.318Z,6.90
2024-01-27T14:14:32.461Z,6.80
2024-01-27T14:15:35.004Z,6.70
2024-01-27T14:16:41.586Z,6.40
2024-01-27T14:17:46.998Z,6.60
2024-01-27T14:18:57.554Z,6.60
2024-01-27T14:20:07.898Z,6.40
2024-01-27T14:21:12.858Z,6.50
2024-01-27T14:22:19.119Z,6.60
2024-01-27T14:23:29.241Z,6.80
2024-01-27T14:24:36.704Z,6.70
2024-01-27T14:25:40.207Z,6.70
2024-01-27T14:26:49.820Z,6.60
2024-01-27T14:28:01.295Z,6.60
2024-01-27T14:29:08.646Z,7.10
2024-01-27T14:30:17.485Z,6.90
2024-01-27T14:31:29.894Z,7.00
2024-01-27T14:32:36.943Z,6.90
2024-01-27T14:33:43.314Z,6.90
2024-01-27T14:35:00.042Z,6.30
2024-01-27T14:36:05.212Z,6.30
2024-01-27T14:37:11.068Z,6.20
2024-01-27T14:38:14.692Z,6.30
2024-01-27T14:39:23.285Z,6.70
2024-01-27T14:40:26.956Z,6.90
2024-01-27T14:41:32.805Z,7.10
2024-01-27T14:42:41.038Z,7.10
2024-01-27T14:44:01.129Z,7.10
2024-01-27T14:45:09.219Z,7.20
2024-01-27T14:46:17.120Z,7.30
2024-01-27T14:47:24.873Z,7.50
2024-01-27T14:48:36.166Z,7.40
2024-01-27T14:49:49.297Z,7.20
2024-01-27T14:51:04.224Z,7.30
2024-01-27T14:52:09.885Z,7.20
2024-01-27T14:53:20.903Z,7.10
2024-01-27T14:54:27.263Z,7.10
2024-01-27T14:55:32.301Z,6.70
2024-01-27T14:56:38.060Z,6.80
2024-01-27T14:59:09.481Z,7.00
2024-01-27T15:00:18.047Z,6.90
2024-01-27T15:01:23.398Z,6.70
2024-01-27T15:02:33.102Z,6.70
2024-01-27T15:03:41.998Z,6.70
2024-01-27T15:04:57.648Z,6.70
2024-01-27T15:06:05.292Z,7.00
2024-01-27T15:07:16.946Z,7.20
2024-01-27T15:08:23.795Z,7.30
2024-01-27T15:09:33.195Z,7.00
2024-01-27T15:10:41.150Z,6.80
2024-01-27T15:11:51.130Z,6.90
2024-01-27T15:13:00.863Z,6.90
2024-01-27T15:14:09.710Z,6.80
2024-01-27T15:15:19.751Z,7.10
2024-01-27T15:16:29.694Z,6.60
2024-01-27T15:17:53.857Z,6.30
2024-01-27T15:19:05.639Z,6.30
2024-01-27T15:20:32.595Z,6.50
2024-01-27T15:21:40.477Z,6.80
2024-01-27T15:22:48.693Z,6.70
2024-01-27T15:23:57.267Z,6.90